createdAt,value
2022-10-09T00:01:30.156Z,8.75
2022-10-09T00:03:59.320Z,10.23
2022-10-09T00:06:33.546Z,9.48
2022-10-09T00:09:03.041Z,11.40
2022-10-09T00:11:33.516Z,10.35
2022-10-09T00:14:03.734Z,9.00
2022-10-09T00:16:32.342Z,10.65
2022-10-09T00:19:00.538Z,9.15
2022-10-09T00:21:33.846Z,10.13
2022-10-09T00:24:04.302Z,9.95
2022-10-09T00:26:32.974Z,8.25
2022-10-09T00:29:01.170Z,10.38
2022-10-09T00:31:29.605Z,9.68
2022-10-09T00:33:57.735Z,10.33
2022-10-09T00:36:27.236Z,9.77
2022-10-09T00:38:55.775Z,12.02
2022-10-09T00:41:27.046Z,8.95
2022-10-09T00:44:04.338Z,9.35
2022-10-09T00:46:45.464Z,11.00
2022-10-09T00:49:16.241Z,9.93
2022-10-09T00:51:48.349Z,9.85
2022-10-09T00:54:21.380Z,12.50
2022-10-09T00:56:50.728Z,10.88
2022-10-09T00:59:19.544Z,10.23
2022-10-09T01:01:47.854Z,11.77
2022-10-09T01:04:16.131Z,10.77
2022-10-09T01:07:06.906Z,12.43
2022-10-09T01:09:43.794Z,11.98
2022-10-09T01:12:21.222Z,12.30
2022-10-09T01:15:28.555Z,10.70
2022-10-09T01:18:24.813Z,12.32
2022-10-09T01:20:57.834Z,11.35
2022-10-09T01:23:34.835Z,9.98
2022-10-09T01:26:17.385Z,12.10
2022-10-09T01:28:55.460Z,14.57
2022-10-09T01:31:25.581Z,11.68
2022-10-09T01:33:53.771Z,10.57
2022-10-09T01:36:24.357Z,9.23
2022-10-09T01:38:53.741Z,9.10
2022-10-09T01:41:22.166Z,9.93
2022-10-09T01:43:50.271Z,10.07
2022-10-09T01:46:30.130Z,8.98
2022-10-09T01:49:22.399Z,8.27
2022-10-09T01:52:19.464Z,9.23
2022-10-09T01:55:02.610Z,9.68
2022-10-09T01:57:37.684Z,9.15
2022-10-09T02:00:10.472Z,10.05
2022-10-09T02:02:42.952Z,12.27
2022-10-09T02:05:15.629Z,10.43
2022-10-09T02:07:44.117Z,9.15
2022-10-09T02:10:13.466Z,9.07
2022-10-09T02:12:48.386Z,9.77
2022-10-09T02:15:17.130Z,8.60
2022-10-09T02:17:48.925Z,10.87
2022-10-09T02:20:28.661Z,8.48
2022-10-09T02:22:59.054Z,8.48
2022-10-09T02:25:27.138Z,8.77
2022-10-09T02:27:55.600Z,9.02
2022-10-09T02:30:27.510Z,9.13
2022-10-09T02:32:58.047Z,9.30
2022-10-09T02:35:26.430Z,7.78
2022-10-09T02:37:54.239Z,7.72
2022-10-09T02:40:22.285Z,8.90
2022-10-09T02:42:50.281Z,9.73
2022-10-09T02:45:18.573Z,10.35
2022-10-09T02:47:46.553Z,9.68
2022-10-09T02:50:14.758Z,9.45
2022-10-09T02:52:42.644Z,8.45
2022-10-09T02:55:10.881Z,8.83
2022-10-09T02:57:38.804Z,8.15
2022-10-09T03:00:07.425Z,9.00
2022-10-09T03:02:35.337Z,8.82
2022-10-09T03:05:03.470Z,10.23
2022-10-09T03:07:31.545Z,10.73
2022-10-09T03:10:00.204Z,8.68
2022-10-09T03:12:28.526Z,10.00
2022-10-09T03:14:56.590Z,8.82
2022-10-09T03:17:24.740Z,9.30
2022-10-09T03:19:52.586Z,8.57
2022-10-09T03:22:20.564Z,7.65
2022-10-09T03:24:48.534Z,9.45
2022-10-09T03:27:16.615Z,10.07
2022-10-09T03:29:44.421Z,9.75
2022-10-09T03:32:12.677Z,8.63
2022-10-09T03:34:40.530Z,8.65
2022-10-09T03:37:08.709Z,8.55
2022-10-09T03:39:36.829Z,11.02
2022-10-09T03:42:05.242Z,10.77
2022-10-09T03:44:33.438Z,11.40
2022-10-09T03:47:02.011Z,7.60
2022-10-09T03:49:29.957Z,8.30
2022-10-09T03:51:57.885Z,8.38
2022-10-09T03:54:26.135Z,8.60
2022-10-09T03:56:54.206Z,8.60
2022-10-09T03:59:22.105Z,11.40
2022-10-09T04:01:50.195Z,10.18
2022-10-09T04:04:18.271Z,8.38
2022-10-09T04:06:46.446Z,8.63
2022-10-09T04:09:14.966Z,8.00
2022-10-09T04:11:43.271Z,9.50
2022-10-09T04:14:11.717Z,10.23
2022-10-09T04:16:39.908Z,9.95
2022-10-09T04:19:07.764Z,9.98
2022-10-09T04:21:35.909Z,9.57
2022-10-09T04:24:04.187Z,8.38
2022-10-09T04:26:32.211Z,8.43
2022-10-09T04:28:59.893Z,9.10
2022-10-09T04:31:28.119Z,11.13
2022-10-09T04:33:56.764Z,8.60
2022-10-09T04:36:25.223Z,8.68
2022-10-09T04:38:53.285Z,8.40
2022-10-09T04:41:21.673Z,10.25
2022-10-09T04:43:49.420Z,12.65
2022-10-09T04:46:17.541Z,9.27
2022-10-09T04:48:47.261Z,9.75
2022-10-09T04:51:16.368Z,9.63
2022-10-09T04:53:45.785Z,8.80
2022-10-09T04:56:16.439Z,8.73
2022-10-09T04:58:46.017Z,9.97
2022-10-09T05:01:18.229Z,10.88
2022-10-09T05:03:46.646Z,11.20
2022-10-09T05:06:16.063Z,9.98
2022-10-09T05:08:44.516Z,10.98
2022-10-09T05:11:14.758Z,9.80
2022-10-09T05:13:45.768Z,8.77
2022-10-09T05:16:16.525Z,10.30
2022-10-09T05:18:53.529Z,8.25
2022-10-09T05:21:22.712Z,10.85
2022-10-09T05:23:50.959Z,9.67
2022-10-09T05:26:21.187Z,11.05
2022-10-09T05:28:50.125Z,13.57
2022-10-09T05:31:27.539Z,12.25
2022-10-09T05:33:58.925Z,15.50
2022-10-09T05:36:27.124Z,12.63
2022-10-09T05:38:55.225Z,14.70
2022-10-09T05:41:23.551Z,14.13
2022-10-09T05:43:51.755Z,14.75
2022-10-09T05:46:25.645Z,14.90
2022-10-09T05:48:56.514Z,10.80
2022-10-09T05:51:36.402Z,11.93
2022-10-09T05:54:05.874Z,9.07
2022-10-09T05:56:39.662Z,11.02
2022-10-09T05:59:15.354Z,8.88
2022-10-09T06:01:45.781Z,12.63
2022-10-09T06:04:17.153Z,13.13
2022-10-09T06:06:48.055Z,13.35
2022-10-09T06:09:23.553Z,19.05
2022-10-09T06:11:52.345Z,19.30
2022-10-09T06:14:23.538Z,16.73
2022-10-09T06:16:51.909Z,15.40
2022-10-09T06:19:20.964Z,17.45
2022-10-09T06:21:49.629Z,12.93
2022-10-09T06:24:28.193Z,16.13
2022-10-09T06:26:58.560Z,11.30
2022-10-09T06:29:26.942Z,9.63
2022-10-09T06:31:55.104Z,7.70
2022-10-09T06:34:23.177Z,8.43
2022-10-09T06:36:51.636Z,8.70
2022-10-09T06:39:19.670Z,8.77
2022-10-09T06:41:48.021Z,6.88
2022-10-09T06:44:40.281Z,9.85
2022-10-09T06:47:08.538Z,8.65
2022-10-09T06:49:36.376Z,9.38
2022-10-09T06:52:04.485Z,6.20
2022-10-09T06:54:32.454Z,8.00
2022-10-09T06:57:00.466Z,7.38
2022-10-09T06:59:28.557Z,10.35
2022-10-09T07:01:58.040Z,12.75
2022-10-09T07:04:26.453Z,10.87
2022-10-09T07:06:56.273Z,10.70
2022-10-09T07:09:25.095Z,9.65
2022-10-09T07:11:53.682Z,8.68
2022-10-09T07:14:21.645Z,14.65
2022-10-09T07:16:52.028Z,8.00
2022-10-09T07:19:20.351Z,11.93
2022-10-09T07:21:49.937Z,10.32
2022-10-09T07:24:21.142Z,10.18
2022-10-09T07:26:49.547Z,8.95
2022-10-09T07:29:19.161Z,8.97
2022-10-09T07:31:47.336Z,11.65
2022-10-09T07:34:15.140Z,9.35
2022-10-09T07:36:43.584Z,7.88
2022-10-09T07:39:11.726Z,9.20
2022-10-09T07:41:39.912Z,8.77
2022-10-09T07:44:08.063Z,7.55
2022-10-09T07:46:36.358Z,11.27
2022-10-09T07:49:04.786Z,13.68
2022-10-09T07:51:33.349Z,9.20
2022-10-09T07:54:02.679Z,12.33
2022-10-09T07:56:33.811Z,12.27
2022-10-09T07:59:04.722Z,10.32
2022-10-09T08:01:34.320Z,9.90
2022-10-09T08:04:02.721Z,11.25
2022-10-09T08:06:31.329Z,8.03
2022-10-09T08:09:04.147Z,11.77
2022-10-09T08:11:32.994Z,10.82
2022-10-09T08:14:01.011Z,10.88
2022-10-09T08:16:29.321Z,11.32
2022-10-09T08:19:00.169Z,12.77
2022-10-09T08:21:28.938Z,11.95
2022-10-09T08:23:58.552Z,13.27
2022-10-09T08:26:28.965Z,14.23
2022-10-09T08:28:59.628Z,12.07
2022-10-09T08:31:29.048Z,15.47
2022-10-09T08:33:59.084Z,13.30
2022-10-09T08:36:27.582Z,12.15
2022-10-09T08:38:55.991Z,13.45
2022-10-09T08:41:49.966Z,13.75
2022-10-09T08:44:24.723Z,12.73
2022-10-09T08:47:12.948Z,10.90
2022-10-09T08:49:48.382Z,13.32
2022-10-09T08:52:37.471Z,10.55
2022-10-09T08:55:25.675Z,12.70
2022-10-09T08:57:57.206Z,10.67
2022-10-09T09:00:29.604Z,11.50
2022-10-09T09:03:21.353Z,12.43
2022-10-09T09:06:01.191Z,11.10
2022-10-09T09:08:38.486Z,10.38
2022-10-09T09:11:35.072Z,10.47
2022-10-09T09:14:03.160Z,11.90
2022-10-09T09:16:40.573Z,10.23
2022-10-09T09:19:38.855Z,10.30
2022-10-09T09:22:14.521Z,9.85
2022-10-09T09:24:57.373Z,7.93
2022-10-09T09:27:32.862Z,10.43
2022-10-09T09:30:12.804Z,8.13
2022-10-09T09:32:56.743Z,9.77
2022-10-09T09:35:33.633Z,11.35
2022-10-09T09:38:02.567Z,12.07
2022-10-09T09:40:37.346Z,10.95
2022-10-09T09:43:27.269Z,7.45
2022-10-09T09:45:58.364Z,8.52
2022-10-09T09:48:32.076Z,11.18
2022-10-09T09:51:23.585Z,9.73
2022-10-09T09:53:55.648Z,11.60
2022-10-09T09:56:53.177Z,9.27
2022-10-09T09:59:34.511Z,10.65
2022-10-09T10:02:21.633Z,8.07
2022-10-09T10:05:01.404Z,9.23
2022-10-09T10:07:34.752Z,7.45
2022-10-09T10:10:22.435Z,8.70
2022-10-09T10:12:54.051Z,8.93
2022-10-09T10:15:33.260Z,10.00
2022-10-09T10:18:08.032Z,8.30
2022-10-09T10:20:57.308Z,10.25
2022-10-09T10:23:32.550Z,10.15
2022-10-09T10:26:23.037Z,10.80
2022-10-09T10:28:59.953Z,9.18
2022-10-09T10:31:54.389Z,9.57
2022-10-09T10:34:38.901Z,9.73
2022-10-09T10:37:27.242Z,8.55
2022-10-09T10:40:05.219Z,7.53
2022-10-09T10:43:07.397Z,8.57
2022-10-09T10:45:50.754Z,9.00
2022-10-09T10:48:32.000Z,7.65
2022-10-09T10:51:25.991Z,8.75
2022-10-09T10:54:14.955Z,9.73
2022-10-09T10:57:01.164Z,8.07
2022-10-09T10:59:35.055Z,8.17
2022-10-09T11:02:14.835Z,8.68
2022-10-09T11:04:53.068Z,12.40
2022-10-09T11:07:45.234Z,8.38
2022-10-09T11:10:36.778Z,8.77
2022-10-09T11:13:07.755Z,9.37
2022-10-09T11:15:53.227Z,8.20
2022-10-09T11:19:02.398Z,9.63
2022-10-09T11:22:11.616Z,9.20
2022-10-09T11:25:03.264Z,8.98
2022-10-09T11:27:52.415Z,8.63
2022-10-09T11:30:20.858Z,9.25
2022-10-09T11:32:54.799Z,11.00
2022-10-09T11:35:25.751Z,8.70
2022-10-09T11:38:07.917Z,7.68
2022-10-09T11:40:43.750Z,9.40
2022-10-09T11:43:27.424Z,7.45
2022-10-09T11:46:27.137Z,7.65
2022-10-09T11:49:15.975Z,9.07
2022-10-09T11:52:19.213Z,8.23
2022-10-09T11:54:47.443Z,10.43
2022-10-09T11:57:15.725Z,10.57
2022-10-09T11:59:43.975Z,7.32
2022-10-09T12:02:32.478Z,7.82
2022-10-09T12:05:02.803Z,6.20
2022-10-09T12:07:35.619Z,5.70
2022-10-09T12:10:10.681Z,10.95
2022-10-09T12:12:39.376Z,8.35
2022-10-09T12:15:28.264Z,10.15
2022-10-09T12:17:56.581Z,9.55
2022-10-09T12:20:25.907Z,11.10
2022-10-09T12:23:21.860Z,6.95
2022-10-09T12:25:48.148Z,7.63
2022-10-09T12:28:55.031Z,6.05
2022-10-09T12:31:37.510Z,7.20
2022-10-09T12:34:19.784Z,7.03
2022-10-09T12:36:47.906Z,9.57
2022-10-09T12:39:25.623Z,7.10
2022-10-09T12:42:01.339Z,7.13
2022-10-09T12:44:40.654Z,6.28
2022-10-09T12:47:19.504Z,6.77
2022-10-09T12:50:03.358Z,6.53
2022-10-09T12:52:32.543Z,6.20
2022-10-09T12:55:02.961Z,8.10
2022-10-09T12:57:31.423Z,5.85
2022-10-09T12:59:59.924Z,7.33
2022-10-09T13:02:28.324Z,5.90
2022-10-09T13:05:00.352Z,6.97
2022-10-09T13:07:30.687Z,6.78
2022-10-09T13:10:08.207Z,7.70
2022-10-09T13:12:37.175Z,6.53
2022-10-09T13:15:30.685Z,7.53
2022-10-09T13:17:58.973Z,6.35
2022-10-09T13:20:31.070Z,6.38
2022-10-09T13:23:07.156Z,8.63
2022-10-09T13:25:41.038Z,6.37
2022-10-09T13:28:12.508Z,6.45
2022-10-09T13:30:40.733Z,6.22
2022-10-09T13:33:15.228Z,6.03
2022-10-09T13:35:44.055Z,7.45
2022-10-09T13:38:18.271Z,8.27
2022-10-09T13:40:47.119Z,6.28
2022-10-09T13:43:26.398Z,7.50
2022-10-09T13:45:55.124Z,7.25
2022-10-09T13:48:23.116Z,7.57
2022-10-09T13:50:51.241Z,7.90
2022-10-09T13:53:19.357Z,9.15
2022-10-09T13:55:47.516Z,5.97
2022-10-09T13:58:15.639Z,6.88
2022-10-09T14:00:45.965Z,5.38
2022-10-09T14:03:14.358Z,5.90
2022-10-09T14:05:42.332Z,7.47
2022-10-09T14:08:11.482Z,7.90
2022-10-09T14:10:45.723Z,5.43
2022-10-09T14:13:15.301Z,8.27
2022-10-09T14:15:43.269Z,6.37
2022-10-09T14:18:11.408Z,6.43
2022-10-09T14:20:39.821Z,6.50
2022-10-09T14:23:08.086Z,5.68
2022-10-09T14:25:36.420Z,5.95
2022-10-09T14:28:04.749Z,7.53
2022-10-09T14:30:34.543Z,7.90
2022-10-09T14:33:02.715Z,8.80
2022-10-09T14:35:31.233Z,8.38
2022-10-09T14:37:59.747Z,6.57
2022-10-09T14:40:27.979Z,5.77
2022-10-09T14:42:56.318Z,8.20
2022-10-09T14:45:24.379Z,6.80
2022-10-09T14:47:52.405Z,5.95
2022-10-09T14:50:20.269Z,5.97
2022-10-09T14:52:48.628Z,7.63
2022-10-09T14:55:16.827Z,5.03
2022-10-09T14:57:46.669Z,5.90
2022-10-09T15:00:15.120Z,7.10
2022-10-09T15:05:17.057Z,7.73
2022-10-09T15:07:51.735Z,7.88
2022-10-09T15:10:20.022Z,8.40
2022-10-09T15:12:48.019Z,8.10
2022-10-09T15:15:16.548Z,6.03
2022-10-09T15:17:45.829Z,5.37
2022-10-09T15:20:14.576Z,6.43
2022-10-09T15:22:42.490Z,6.75
2022-10-09T15:25:11.105Z,6.53
2022-10-09T15:27:39.866Z,5.55
2022-10-09T15:30:09.559Z,6.93
2022-10-09T15:32:40.423Z,9.27
2022-10-09T15:35:09.035Z,6.43
2022-10-09T15:37:37.069Z,8.65
2022-10-09T15:40:05.294Z,5.10
2022-10-09T15:42:33.974Z,8.10
2022-10-09T15:45:02.342Z,6.95
2022-10-09T15:47:50.060Z,7.90
2022-10-09T15:50:19.125Z,7.53
2022-10-09T15:52:47.418Z,7.53
2022-10-09T15:55:15.705Z,8.70
2022-10-09T15:57:43.547Z,7.90
2022-10-09T16:00:12.492Z,6.53
2022-10-09T16:02:40.448Z,9.25
2022-10-09T16:05:11.544Z,9.27
2022-10-09T16:07:39.711Z,7.43
2022-10-09T16:10:08.067Z,11.63
2022-10-09T16:12:36.329Z,9.95
2022-10-09T16:15:04.455Z,9.32
2022-10-09T16:17:32.436Z,8.63
2022-10-09T16:20:01.544Z,10.07
2022-10-09T16:22:29.612Z,7.65
2022-10-09T16:24:57.419Z,8.40
2022-10-09T16:27:25.547Z,7.43
2022-10-09T16:29:53.245Z,9.18
2022-10-09T16:32:21.123Z,12.30
2022-10-09T16:34:50.633Z,10.48
2022-10-09T16:37:18.735Z,8.57
2022-10-09T16:39:46.760Z,7.47
2022-10-09T16:42:15.132Z,7.88
2022-10-09T16:44:43.135Z,11.83
2022-10-09T16:47:13.535Z,9.70
2022-10-09T16:49:41.815Z,8.35
2022-10-09T16:52:09.748Z,9.02
2022-10-09T16:54:39.179Z,10.98
2022-10-09T16:57:07.580Z,9.80
2022-10-09T16:59:35.761Z,9.13
2022-10-09T17:02:03.965Z,9.20
2022-10-09T17:04:32.236Z,9.45
2022-10-09T17:07:00.672Z,8.05
2022-10-09T17:09:30.797Z,9.27
2022-10-09T17:11:58.930Z,6.75
2022-10-09T17:14:26.861Z,11.45
2022-10-09T17:16:55.344Z,13.23
2022-10-09T17:19:23.305Z,13.68
2022-10-09T17:21:51.450Z,14.83
2022-10-09T17:24:19.523Z,17.17
2022-10-09T17:26:47.585Z,15.15
2022-10-09T17:29:15.441Z,13.43
2022-10-09T17:31:43.638Z,13.20
2022-10-09T17:34:13.143Z,10.37
2022-10-09T17:36:43.254Z,11.40
2022-10-09T17:39:17.263Z,12.65
2022-10-09T17:41:47.201Z,14.82
2022-10-09T17:44:18.315Z,13.52
2022-10-09T17:46:46.525Z,11.33
2022-10-09T17:49:14.417Z,11.52
2022-10-09T17:51:45.576Z,14.60
2022-10-09T17:54:17.457Z,11.95
2022-10-09T17:56:45.511Z,10.32
2022-10-09T17:59:13.598Z,10.63
2022-10-09T18:01:42.384Z,14.00
2022-10-09T18:04:16.966Z,10.27
2022-10-09T18:06:45.390Z,10.93
2022-10-09T18:09:13.833Z,13.70
2022-10-09T18:11:43.174Z,10.17
2022-10-09T18:14:11.338Z,7.50
2022-10-09T18:16:40.404Z,7.93
2022-10-09T18:19:14.351Z,8.30
2022-10-09T18:21:46.692Z,9.40
2022-10-09T18:24:15.827Z,8.53
2022-10-09T18:26:44.941Z,8.20
2022-10-09T18:29:13.234Z,11.00
2022-10-09T18:31:41.264Z,7.18
2022-10-09T18:34:10.791Z,10.07
2022-10-09T18:36:39.765Z,11.80
2022-10-09T18:39:14.061Z,11.38
2022-10-09T18:41:42.741Z,10.07
2022-10-09T18:44:17.915Z,10.32
2022-10-09T18:46:53.778Z,12.18
2022-10-09T18:49:25.338Z,8.10
2022-10-09T18:51:54.054Z,11.90
2022-10-09T18:54:25.156Z,8.25
2022-10-09T18:56:54.169Z,9.50
2022-10-09T18:59:23.326Z,10.15
2022-10-09T19:01:51.361Z,9.07
2022-10-09T19:04:19.392Z,6.50
2022-10-09T19:06:47.684Z,10.63
2022-10-09T19:09:16.185Z,7.82
2022-10-09T19:11:46.492Z,9.82
2022-10-09T19:14:16.265Z,12.57
2022-10-09T19:16:44.880Z,6.70
2022-10-09T19:19:13.827Z,11.35
2022-10-09T19:21:44.884Z,8.52
2022-10-09T19:24:14.132Z,10.07
2022-10-09T19:26:44.517Z,10.83
2022-10-09T19:29:16.645Z,8.73
2022-10-09T19:31:47.569Z,8.82
2022-10-09T19:34:16.424Z,10.00
2022-10-09T19:36:51.299Z,9.43
2022-10-09T19:39:23.055Z,9.63
2022-10-09T19:41:52.022Z,6.65
2022-10-09T19:44:20.811Z,7.90
2022-10-09T19:46:49.136Z,9.20
2022-10-09T19:49:17.107Z,8.65
2022-10-09T19:51:46.441Z,8.47
2022-10-09T19:54:14.664Z,8.80
2022-10-09T19:56:42.823Z,7.72
2022-10-09T19:59:11.344Z,7.45
2022-10-09T20:01:41.011Z,7.45
2022-10-09T20:04:10.956Z,6.90
2022-10-09T20:06:45.653Z,13.20
2022-10-09T20:09:14.682Z,7.80
2022-10-09T20:11:43.175Z,9.30
2022-10-09T20:14:11.791Z,6.30
2022-10-09T20:16:43.016Z,6.50
2022-10-09T20:19:13.034Z,5.82
2022-10-09T20:21:40.932Z,6.93
2022-10-09T20:24:09.195Z,10.35
2022-10-09T20:26:41.004Z,6.18
2022-10-09T20:29:11.539Z,6.47
2022-10-09T20:31:39.842Z,8.55
2022-10-09T20:34:08.029Z,7.47
2022-10-09T20:36:38.296Z,9.88
2022-10-09T20:39:13.079Z,7.78
2022-10-09T20:41:43.487Z,11.93
2022-10-09T20:44:12.911Z,8.93
2022-10-09T20:46:41.965Z,10.65
2022-10-09T20:49:16.119Z,12.38
2022-10-09T20:51:44.466Z,8.52
2022-10-09T20:54:17.715Z,8.93
2022-10-09T20:56:46.693Z,10.48
2022-10-09T20:59:15.447Z,10.43
2022-10-09T21:01:43.830Z,10.50
2022-10-09T21:04:12.653Z,9.73
2022-10-09T21:06:41.324Z,14.93
2022-10-09T21:09:09.756Z,10.55
2022-10-09T21:11:43.131Z,11.48
2022-10-09T21:14:11.308Z,13.98
2022-10-09T21:16:39.618Z,11.60
2022-10-09T21:19:08.500Z,8.63
2022-10-09T21:21:36.785Z,11.57
2022-10-09T21:24:05.031Z,8.15
2022-10-09T21:26:36.410Z,8.23
2022-10-09T21:29:05.861Z,8.70
2022-10-09T21:31:35.203Z,8.53
2022-10-09T21:34:04.215Z,9.15
2022-10-09T21:36:56.284Z,9.68
2022-10-09T21:39:30.954Z,10.80
2022-10-09T21:42:00.253Z,14.35
2022-10-09T21:44:28.380Z,9.23
2022-10-09T21:46:56.815Z,11.38
2022-10-09T21:49:27.695Z,10.52
2022-10-09T21:51:56.832Z,10.35
2022-10-09T21:54:25.365Z,15.20
2022-10-09T21:56:53.889Z,7.83
2022-10-09T21:59:22.237Z,11.07
2022-10-09T22:01:50.473Z,10.13
2022-10-09T22:04:18.540Z,7.97
2022-10-09T22:06:46.728Z,8.68
2022-10-09T22:09:14.785Z,10.10
2022-10-09T22:11:45.305Z,9.93
2022-10-09T22:14:13.887Z,10.80
2022-10-09T22:16:41.813Z,10.00
2022-10-09T22:19:10.256Z,7.93
2022-10-09T22:21:38.838Z,10.23
2022-10-09T22:24:07.436Z,10.18
2022-10-09T22:26:35.645Z,8.13
2022-10-09T22:29:04.523Z,9.95
2022-10-09T22:31:32.449Z,6.95
2022-10-09T22:34:02.640Z,10.57
2022-10-09T22:36:33.251Z,10.40
2022-10-09T22:39:04.962Z,12.38
2022-10-09T22:41:34.662Z,7.70
2022-10-09T22:44:04.225Z,8.13
2022-10-09T22:46:41.498Z,8.43
2022-10-09T22:49:12.966Z,8.70
2022-10-09T22:51:41.466Z,11.32
2022-10-09T22:54:09.652Z,6.70
2022-10-09T22:56:40.570Z,9.50
2022-10-09T22:59:09.977Z,8.67
2022-10-09T23:01:48.760Z,8.40
2022-10-09T23:04:18.935Z,8.77
2022-10-09T23:06:49.943Z,7.60
2022-10-09T23:09:19.054Z,7.32
2022-10-09T23:11:47.493Z,8.03
2022-10-09T23:14:15.594Z,10.10
2022-10-09T23:16:47.526Z,8.27
2022-10-09T23:19:17.073Z,7.93
2022-10-09T23:21:48.883Z,10.85
2022-10-09T23:24:18.878Z,9.27
2022-10-09T23:26:47.644Z,12.25
2022-10-09T23:29:18.057Z,8.68
2022-10-09T23:31:46.998Z,11.57
2022-10-09T23:34:15.044Z,8.65
2022-10-09T23:36:43.238Z,9.30
2022-10-09T23:39:11.027Z,8.77
2022-10-09T23:41:38.823Z,6.57
2022-10-09T23:44:06.753Z,9.05
2022-10-09T23:46:34.899Z,8.43
2022-10-09T23:49:03.322Z,8.10
2022-10-09T23:51:31.511Z,8.27
2022-10-09T23:53:59.602Z,8.68
2022-10-09T23:56:35.628Z,5.85
2022-10-09T23:59:06.567Z,7.68
